Terminal Aerodrome Forecast
Issued by NWS

Home | Current Version | Previous Version | Text Only | Print | Product List | Glossary On
Versions: 1 2 3 4 5 6 7 8 9 10 11 12 13
000
FTUS45 KABQ 280500
TAFFMN
TAF
KFMN 280525Z 2806/2906 07006KT P6SM SCT150 SCT250
      TEMPO 2806/2810 SCT007
     FM281000 07006KT P6SM SCT012 BKN150
     FM282000 28006KT P6SM SCT150 SCT250=

USA.gov is the U.S. government's official web portal to all federal, state and local government web resources and services.